sensor_id;sensor_type;location;lat;lon;timestamp;pressure;altitude;pressure_sealevel;temperature;humidity
81387;BME280;70842;50.744;7.114;2023-07-20T00:01:50;100908.63;;;19.38;59.10
81387;BME280;70842;50.744;7.114;2023-07-20T00:04:17;100914.53;;;19.42;59.14
81387;BME280;70842;50.744;7.114;2023-07-20T00:06:43;100920.91;;;19.33;59.33
81387;BME280;70842;50.744;7.114;2023-07-20T00:09:10;100911.69;;;19.19;59.75
81387;BME280;70842;50.744;7.114;2023-07-20T00:11:37;100917.25;;;19.34;59.22
81387;BME280;70842;50.744;7.114;2023-07-20T00:14:06;100919.75;;;19.19;59.96
81387;BME280;70842;50.744;7.114;2023-07-20T00:16:33;100924.06;;;18.98;60.74
81387;BME280;70842;50.744;7.114;2023-07-20T00:18:59;100920.41;;;19.37;58.55
81387;BME280;70842;50.744;7.114;2023-07-20T00:21:26;100926.19;;;19.10;59.30
81387;BME280;70842;50.744;7.114;2023-07-20T00:23:52;100920.06;;;18.78;60.48
81387;BME280;70842;50.744;7.114;2023-07-20T00:26:19;100921.59;;;18.72;61.22
81387;BME280;70842;50.744;7.114;2023-07-20T00:28:46;100920.59;;;18.65;62.48
81387;BME280;70842;50.744;7.114;2023-07-20T00:31:12;100913.53;;;18.32;64.52
81387;BME280;70842;50.744;7.114;2023-07-20T00:33:39;100919.91;;;18.31;65.49
81387;BME280;70842;50.744;7.114;2023-07-20T00:36:06;100912.22;;;18.28;65.40
81387;BME280;70842;50.744;7.114;2023-07-20T00:38:32;100915.72;;;18.12;66.24
81387;BME280;70842;50.744;7.114;2023-07-20T00:40:59;100913.03;;;18.04;67.75
81387;BME280;70842;50.744;7.114;2023-07-20T00:43:25;100917.75;;;18.34;66.24
81387;BME280;70842;50.744;7.114;2023-07-20T00:45:52;100922.34;;;17.76;68.96
81387;BME280;70842;50.744;7.114;2023-07-20T00:48:18;100918.22;;;18.06;67.54
81387;BME280;70842;50.744;7.114;2023-07-20T00:50:45;100914.84;;;17.87;68.68
81387;BME280;70842;50.744;7.114;2023-07-20T00:53:13;100920.41;;;18.02;68.08
81387;BME280;70842;50.744;7.114;2023-07-20T00:55:39;100922.25;;;18.10;67.77
81387;BME280;70842;50.744;7.114;2023-07-20T00:58:06;100915.34;;;17.83;68.90
81387;BME280;70842;50.744;7.114;2023-07-20T01:00:33;100919.06;;;18.22;67.59
81387;BME280;70842;50.744;7.114;2023-07-20T01:02:59;100912.97;;;17.88;69.32
81387;BME280;70842;50.744;7.114;2023-07-20T01:05:40;100924.38;;;17.90;68.86
81387;BME280;70842;50.744;7.114;2023-07-20T01:08:17;100920.72;;;17.91;68.99
81387;BME280;70842;50.744;7.114;2023-07-20T01:10:51;100923.41;;;17.99;69.06
81387;BME280;70842;50.744;7.114;2023-07-20T01:13:21;100910.13;;;17.81;69.48
81387;BME280;70842;50.744;7.114;2023-07-20T01:15:57;100922.53;;;17.90;69.46
81387;BME280;70842;50.744;7.114;2023-07-20T01:18:24;100920.56;;;18.17;68.02
81387;BME280;70842;50.744;7.114;2023-07-20T01:20:54;100923.94;;;18.11;68.65
81387;BME280;70842;50.744;7.114;2023-07-20T01:29:27;100910.19;;;18.46;67.14
81387;BME280;70842;50.744;7.114;2023-07-20T01:35:41;100916.38;;;17.98;69.99
81387;BME280;70842;50.744;7.114;2023-07-20T01:38:11;100919.72;;;18.16;69.13
81387;BME280;70842;50.744;7.114;2023-07-20T01:40:39;100915.88;;;18.11;69.31
81387;BME280;70842;50.744;7.114;2023-07-20T01:43:07;100913.88;;;18.21;68.93
81387;BME280;70842;50.744;7.114;2023-07-20T01:45:33;100909.88;;;18.49;67.65
81387;BME280;70842;50.744;7.114;2023-07-20T01:48:00;100911.34;;;18.43;67.69
81387;BME280;70842;50.744;7.114;2023-07-20T01:50:26;100911.19;;;18.05;69.33
81387;BME280;70842;50.744;7.114;2023-07-20T01:52:53;100908.19;;;18.32;68.31
81387;BME280;70842;50.744;7.114;2023-07-20T01:55:19;100906.66;;;18.29;68.46
81387;BME280;70842;50.744;7.114;2023-07-20T01:57:45;100907.66;;;18.12;69.08
81387;BME280;70842;50.744;7.114;2023-07-20T02:00:12;100903.28;;;17.87;70.03
81387;BME280;70842;50.744;7.114;2023-07-20T02:02:38;100903.63;;;18.16;68.79
81387;BME280;70842;50.744;7.114;2023-07-20T02:05:05;100905.50;;;18.24;68.56
81387;BME280;70842;50.744;7.114;2023-07-20T02:07:32;100904.31;;;17.94;69.81
81387;BME280;70842;50.744;7.114;2023-07-20T02:09:58;100907.78;;;17.70;70.90
81387;BME280;70842;50.744;7.114;2023-07-20T02:12:24;100911.81;;;17.99;69.98
81387;BME280;70842;50.744;7.114;2023-07-20T02:14:51;100908.34;;;18.06;69.94
81387;BME280;70842;50.744;7.114;2023-07-20T02:17:18;100909.00;;;18.08;69.28
81387;BME280;70842;50.744;7.114;2023-07-20T02:19:44;100902.13;;;18.06;69.03
81387;BME280;70842;50.744;7.114;2023-07-20T02:22:10;100904.13;;;17.96;69.68
81387;BME280;70842;50.744;7.114;2023-07-20T02:24:37;100903.81;;;18.31;68.42
81387;BME280;70842;50.744;7.114;2023-07-20T02:27:04;100895.09;;;18.29;68.51
81387;BME280;70842;50.744;7.114;2023-07-20T02:29:30;100903.28;;;17.87;69.67
81387;BME280;70842;50.744;7.114;2023-07-20T02:31:56;100901.09;;;17.90;69.62
81387;BME280;70842;50.744;7.114;2023-07-20T02:34:23;100892.88;;;17.84;69.96
81387;BME280;70842;50.744;7.114;2023-07-20T02:36:49;100887.88;;;17.89;68.80
81387;BME280;70842;50.744;7.114;2023-07-20T02:39:16;100894.56;;;18.09;68.63
81387;BME280;70842;50.744;7.114;2023-07-20T02:41:42;100892.06;;;18.16;68.15
81387;BME280;70842;50.744;7.114;2023-07-20T02:44:08;100893.75;;;18.17;68.42
81387;BME280;70842;50.744;7.114;2023-07-20T02:46:35;100895.09;;;18.21;68.10
81387;BME280;70842;50.744;7.114;2023-07-20T02:49:01;100893.22;;;18.13;68.06
81387;BME280;70842;50.744;7.114;2023-07-20T02:51:28;100895.28;;;18.19;68.33
81387;BME280;70842;50.744;7.114;2023-07-20T02:53:54;100901.47;;;18.04;68.00
81387;BME280;70842;50.744;7.114;2023-07-20T02:56:21;100898.41;;;17.82;68.80
81387;BME280;70842;50.744;7.114;2023-07-20T02:58:49;100908.50;;;18.05;68.35
81387;BME280;70842;50.744;7.114;2023-07-20T03:01:16;100906.31;;;18.08;68.23
81387;BME280;70842;50.744;7.114;2023-07-20T03:03:42;100904.13;;;18.04;68.26
81387;BME280;70842;50.744;7.114;2023-07-20T03:06:14;100901.63;;;18.02;67.92
81387;BME280;70842;50.744;7.114;2023-07-20T03:08:42;100898.09;;;17.93;68.32
81387;BME280;70842;50.744;7.114;2023-07-20T03:11:11;100906.44;;;17.74;68.57
81387;BME280;70842;50.744;7.114;2023-07-20T03:13:38;100906.59;;;17.73;68.90
81387;BME280;70842;50.744;7.114;2023-07-20T03:16:04;100912.31;;;17.78;68.40
81387;BME280;70842;50.744;7.114;2023-07-20T03:18:30;100909.94;;;17.67;68.85
81387;BME280;70842;50.744;7.114;2023-07-20T03:20:57;100909.72;;;17.52;69.15
81387;BME280;70842;50.744;7.114;2023-07-20T03:23:23;100921.00;;;17.30;70.53
81387;BME280;70842;50.744;7.114;2023-07-20T03:25:50;100910.16;;;17.40;69.76
81387;BME280;70842;50.744;7.114;2023-07-20T03:28:16;100914.22;;;17.52;69.11
81387;BME280;70842;50.744;7.114;2023-07-20T03:30:42;100921.66;;;17.58;69.42
81387;BME280;70842;50.744;7.114;2023-07-20T03:33:09;100916.19;;;17.42;69.43
81387;BME280;70842;50.744;7.114;2023-07-20T03:35:35;100925.97;;;17.51;69.69
81387;BME280;70842;50.744;7.114;2023-07-20T03:38:02;100922.81;;;17.22;70.69
81387;BME280;70842;50.744;7.114;2023-07-20T03:40:28;100921.00;;;17.30;69.36
81387;BME280;70842;50.744;7.114;2023-07-20T03:42:54;100924.63;;;17.55;69.00
81387;BME280;70842;50.744;7.114;2023-07-20T03:45:21;100929.78;;;17.48;68.99
81387;BME280;70842;50.744;7.114;2023-07-20T03:47:50;100932.38;;;17.66;68.45
81387;BME280;70842;50.744;7.114;2023-07-20T03:50:16;100926.25;;;17.48;68.97
81387;BME280;70842;50.744;7.114;2023-07-20T03:52:43;100929.38;;;17.35;68.85
81387;BME280;70842;50.744;7.114;2023-07-20T03:55:09;100929.06;;;17.38;69.13
81387;BME280;70842;50.744;7.114;2023-07-20T03:57:36;100931.78;;;17.46;68.56
81387;BME280;70842;50.744;7.114;2023-07-20T04:00:03;100932.75;;;17.37;68.80
81387;BME280;70842;50.744;7.114;2023-07-20T04:02:33;100934.78;;;17.09;70.23
81387;BME280;70842;50.744;7.114;2023-07-20T04:04:59;100932.34;;;17.24;69.44
81387;BME280;70842;50.744;7.114;2023-07-20T04:07:25;100928.28;;;17.12;69.62
81387;BME280;70842;50.744;7.114;2023-07-20T04:09:52;100924.50;;;16.97;69.90
81387;BME280;70842;50.744;7.114;2023-07-20T04:12:18;100926.38;;;17.30;69.10
81387;BME280;70842;50.744;7.114;2023-07-20T04:14:45;100929.09;;;17.46;68.30
81387;BME280;70842;50.744;7.114;2023-07-20T04:17:11;100929.16;;;17.54;67.68
81387;BME280;70842;50.744;7.114;2023-07-20T04:19:39;100929.50;;;17.17;69.03
81387;BME280;70842;50.744;7.114;2023-07-20T04:22:05;100932.09;;;17.43;68.15
81387;BME280;70842;50.744;7.114;2023-07-20T04:24:32;100936.03;;;17.57;67.81
81387;BME280;70842;50.744;7.114;2023-07-20T04:26:58;100929.03;;;17.64;67.65
81387;BME280;70842;50.744;7.114;2023-07-20T04:29:24;100926.19;;;17.32;68.11
81387;BME280;70842;50.744;7.114;2023-07-20T04:31:51;100932.00;;;17.53;67.84
81387;BME280;70842;50.744;7.114;2023-07-20T04:34:20;100935.88;;;17.58;67.46
81387;BME280;70842;50.744;7.114;2023-07-20T04:36:46;100938.94;;;17.38;67.53
81387;BME280;70842;50.744;7.114;2023-07-20T04:39:13;100940.88;;;17.53;66.92
81387;BME280;70842;50.744;7.114;2023-07-20T04:41:57;100931.47;;;17.49;67.52
81387;BME280;70842;50.744;7.114;2023-07-20T04:44:23;100944.25;;;17.63;66.88
81387;BME280;70842;50.744;7.114;2023-07-20T04:46:50;100952.31;;;17.63;66.92
81387;BME280;70842;50.744;7.114;2023-07-20T04:49:17;100948.59;;;17.56;67.71
81387;BME280;70842;50.744;7.114;2023-07-20T04:51:43;100955.34;;;17.35;68.10
81387;BME280;70842;50.744;7.114;2023-07-20T04:54:10;100942.31;;;17.40;67.54
81387;BME280;70842;50.744;7.114;2023-07-20T04:56:36;100951.34;;;17.39;67.70
81387;BME280;70842;50.744;7.114;2023-07-20T04:59:02;100955.22;;;17.44;68.36
81387;BME280;70842;50.744;7.114;2023-07-20T05:01:29;100957.53;;;17.39;68.64
81387;BME280;70842;50.744;7.114;2023-07-20T05:03:55;100961.47;;;16.93;69.97
81387;BME280;70842;50.744;7.114;2023-07-20T05:06:22;100953.28;;;17.29;68.62
81387;BME280;70842;50.744;7.114;2023-07-20T05:08:49;100957.88;;;17.36;68.41
81387;BME280;70842;50.744;7.114;2023-07-20T05:11:15;100952.59;;;16.93;69.97
81387;BME280;70842;50.744;7.114;2023-07-20T05:13:42;100948.91;;;16.86;70.42
81387;BME280;70842;50.744;7.114;2023-07-20T05:16:08;100953.88;;;17.06;69.74
81387;BME280;70842;50.744;7.114;2023-07-20T05:18:35;100947.03;;;16.86;70.25
81387;BME280;70842;50.744;7.114;2023-07-20T05:21:01;100961.06;;;17.06;69.92
81387;BME280;70842;50.744;7.114;2023-07-20T05:23:28;100953.66;;;17.00;70.13
81387;BME280;70842;50.744;7.114;2023-07-20T05:25:56;100966.47;;;17.22;69.47
81387;BME280;70842;50.744;7.114;2023-07-20T05:28:26;100958.50;;;17.30;68.75
81387;BME280;70842;50.744;7.114;2023-07-20T05:30:53;100967.94;;;17.42;68.86
81387;BME280;70842;50.744;7.114;2023-07-20T05:33:20;100964.84;;;17.29;69.01
81387;BME280;70842;50.744;7.114;2023-07-20T05:35:47;100958.31;;;17.24;69.27
81387;BME280;70842;50.744;7.114;2023-07-20T05:38:14;100958.97;;;17.51;68.55
81387;BME280;70842;50.744;7.114;2023-07-20T05:40:41;100954.50;;;17.34;68.37
81387;BME280;70842;50.744;7.114;2023-07-20T05:43:11;100957.69;;;17.04;70.24
81387;BME280;70842;50.744;7.114;2023-07-20T05:45:37;100961.22;;;17.38;68.79
81387;BME280;70842;50.744;7.114;2023-07-20T05:48:08;100967.28;;;17.48;68.70
81387;BME280;70842;50.744;7.114;2023-07-20T05:50:36;100971.19;;;17.54;68.32
81387;BME280;70842;50.744;7.114;2023-07-20T05:53:02;100977.59;;;17.35;69.06
81387;BME280;70842;50.744;7.114;2023-07-20T05:55:29;100970.78;;;17.41;68.97
81387;BME280;70842;50.744;7.114;2023-07-20T05:57:55;100969.03;;;17.24;69.04
81387;BME280;70842;50.744;7.114;2023-07-20T06:00:22;100974.22;;;17.25;69.04
81387;BME280;70842;50.744;7.114;2023-07-20T06:02:53;100973.34;;;17.50;68.43
81387;BME280;70842;50.744;7.114;2023-07-20T06:05:22;100970.34;;;17.20;69.64
81387;BME280;70842;50.744;7.114;2023-07-20T06:07:52;100976.16;;;17.49;68.88
81387;BME280;70842;50.744;7.114;2023-07-20T06:10:20;100977.03;;;17.49;68.48
81387;BME280;70842;50.744;7.114;2023-07-20T06:12:47;100978.44;;;17.36;68.95
81387;BME280;70842;50.744;7.114;2023-07-20T06:15:27;100974.78;;;17.70;67.99
81387;BME280;70842;50.744;7.114;2023-07-20T06:17:55;100981.03;;;17.87;67.90
81387;BME280;70842;50.744;7.114;2023-07-20T06:20:22;100979.34;;;17.86;67.58
81387;BME280;70842;50.744;7.114;2023-07-20T06:22:48;100986.72;;;17.92;67.72
81387;BME280;70842;50.744;7.114;2023-07-20T06:25:15;100978.69;;;17.92;67.11
81387;BME280;70842;50.744;7.114;2023-07-20T06:27:42;100985.81;;;17.67;68.30
81387;BME280;70842;50.744;7.114;2023-07-20T06:30:10;100978.53;;;17.93;67.51
81387;BME280;70842;50.744;7.114;2023-07-20T06:32:36;100978.38;;;18.03;67.18
81387;BME280;70842;50.744;7.114;2023-07-20T06:35:03;100984.19;;;17.82;68.00
81387;BME280;70842;50.744;7.114;2023-07-20T06:37:30;100981.72;;;18.05;67.37
81387;BME280;70842;50.744;7.114;2023-07-20T06:39:56;100981.72;;;18.05;66.89
81387;BME280;70842;50.744;7.114;2023-07-20T06:42:25;100987.56;;;17.92;67.23
81387;BME280;70842;50.744;7.114;2023-07-20T06:45:12;100985.50;;;17.70;67.61
81387;BME280;70842;50.744;7.114;2023-07-20T06:47:39;100988.53;;;17.75;67.28
81387;BME280;70842;50.744;7.114;2023-07-20T06:50:06;100991.59;;;17.88;67.20
81387;BME280;70842;50.744;7.114;2023-07-20T06:52:33;100987.13;;;18.21;66.35
81387;BME280;70842;50.744;7.114;2023-07-20T06:55:00;100991.78;;;18.03;65.80
81387;BME280;70842;50.744;7.114;2023-07-20T06:57:31;100984.78;;;18.10;66.13
81387;BME280;70842;50.744;7.114;2023-07-20T06:59:57;100995.78;;;17.99;66.33
81387;BME280;70842;50.744;7.114;2023-07-20T07:02:24;100995.31;;;18.20;66.29
81387;BME280;70842;50.744;7.114;2023-07-20T07:04:50;100988.66;;;18.24;65.16
81387;BME280;70842;50.744;7.114;2023-07-20T07:07:26;100993.84;;;18.41;65.11
81387;BME280;70842;50.744;7.114;2023-07-20T07:09:56;101001.88;;;18.17;66.00
81387;BME280;70842;50.744;7.114;2023-07-20T07:12:22;101001.38;;;18.22;64.82
81387;BME280;70842;50.744;7.114;2023-07-20T07:14:49;100999.41;;;18.32;65.11
81387;BME280;70842;50.744;7.114;2023-07-20T07:17:15;100996.03;;;18.30;64.84
81387;BME280;70842;50.744;7.114;2023-07-20T07:19:45;101005.56;;;18.16;64.88
81387;BME280;70842;50.744;7.114;2023-07-20T07:22:14;100999.72;;;18.29;64.91
81387;BME280;70842;50.744;7.114;2023-07-20T07:24:41;101004.81;;;18.64;64.16
81387;BME280;70842;50.744;7.114;2023-07-20T07:27:08;101007.63;;;18.70;63.52
81387;BME280;70842;50.744;7.114;2023-07-20T07:29:35;100997.56;;;18.40;64.20
81387;BME280;70842;50.744;7.114;2023-07-20T07:32:01;100998.94;;;18.44;64.55
81387;BME280;70842;50.744;7.114;2023-07-20T07:34:28;101003.44;;;18.60;64.22
81387;BME280;70842;50.744;7.114;2023-07-20T07:36:54;101004.16;;;18.70;64.21
81387;BME280;70842;50.744;7.114;2023-07-20T07:39:21;101008.84;;;18.76;63.35
81387;BME280;70842;50.744;7.114;2023-07-20T07:41:50;101006.59;;;18.39;63.37
81387;BME280;70842;50.744;7.114;2023-07-20T07:44:18;101009.34;;;18.55;64.20
81387;BME280;70842;50.744;7.114;2023-07-20T07:46:44;101008.19;;;18.66;63.49
81387;BME280;70842;50.744;7.114;2023-07-20T07:49:11;101010.50;;;18.93;63.03
81387;BME280;70842;50.744;7.114;2023-07-20T07:51:37;101004.59;;;19.06;60.58
81387;BME280;70842;50.744;7.114;2023-07-20T07:54:04;101010.31;;;19.03;61.12
81387;BME280;70842;50.744;7.114;2023-07-20T07:56:30;101015.50;;;18.96;60.93
81387;BME280;70842;50.744;7.114;2023-07-20T07:58:57;101019.41;;;18.78;61.26
81387;BME280;70842;50.744;7.114;2023-07-20T08:01:23;101018.84;;;19.22;60.02
81387;BME280;70842;50.744;7.114;2023-07-20T08:03:50;101025.00;;;19.55;58.92
81387;BME280;70842;50.744;7.114;2023-07-20T08:06:17;101013.13;;;19.25;58.58
81387;BME280;70842;50.744;7.114;2023-07-20T08:08:43;101015.47;;;19.44;58.12
81387;BME280;70842;50.744;7.114;2023-07-20T08:11:10;101015.41;;;19.61;57.23
81387;BME280;70842;50.744;7.114;2023-07-20T08:13:38;101007.34;;;19.91;56.85
81387;BME280;70842;50.744;7.114;2023-07-20T08:16:04;101007.91;;;19.87;57.36
81387;BME280;70842;50.744;7.114;2023-07-20T08:18:31;101011.31;;;19.73;58.48
81387;BME280;70842;50.744;7.114;2023-07-20T08:20:57;101017.50;;;20.12;57.53
81387;BME280;70842;50.744;7.114;2023-07-20T08:23:24;101011.38;;;20.26;56.15
81387;BME280;70842;50.744;7.114;2023-07-20T08:25:50;101015.44;;;20.22;56.79
81387;BME280;70842;50.744;7.114;2023-07-20T08:28:17;101012.13;;;20.12;57.66
81387;BME280;70842;50.744;7.114;2023-07-20T08:30:48;101014.44;;;20.15;57.47
81387;BME280;70842;50.744;7.114;2023-07-20T08:33:15;101015.78;;;20.27;56.46
81387;BME280;70842;50.744;7.114;2023-07-20T08:35:43;101027.44;;;20.42;56.39
81387;BME280;70842;50.744;7.114;2023-07-20T08:38:09;101032.13;;;20.40;56.67
81387;BME280;70842;50.744;7.114;2023-07-20T08:40:40;101029.59;;;20.16;54.24
81387;BME280;70842;50.744;7.114;2023-07-20T08:43:08;101018.28;;;20.29;53.25
81387;BME280;70842;50.744;7.114;2023-07-20T08:45:36;101021.69;;;20.23;54.33
81387;BME280;70842;50.744;7.114;2023-07-20T08:48:05;101027.00;;;20.76;53.67
81387;BME280;70842;50.744;7.114;2023-07-20T08:50:32;101023.47;;;20.75;51.60
81387;BME280;70842;50.744;7.114;2023-07-20T08:53:00;101019.16;;;20.66;51.30
81387;BME280;70842;50.744;7.114;2023-07-20T08:55:27;101017.06;;;20.54;51.73
81387;BME280;70842;50.744;7.114;2023-07-20T08:58:00;101010.44;;;20.64;51.50
81387;BME280;70842;50.744;7.114;2023-07-20T09:00:27;101012.75;;;20.45;52.27
81387;BME280;70842;50.744;7.114;2023-07-20T09:02:57;101007.75;;;20.64;52.59
81387;BME280;70842;50.744;7.114;2023-07-20T09:05:24;101016.59;;;20.73;51.40
81387;BME280;70842;50.744;7.114;2023-07-20T09:07:52;101008.78;;;20.63;52.04
81387;BME280;70842;50.744;7.114;2023-07-20T09:10:23;101003.38;;;20.63;52.59
81387;BME280;70842;50.744;7.114;2023-07-20T09:12:51;101012.22;;;20.49;52.27
81387;BME280;70842;50.744;7.114;2023-07-20T09:15:19;101008.91;;;20.16;51.25
81387;BME280;70842;50.744;7.114;2023-07-20T09:17:47;101001.97;;;20.53;50.94
81387;BME280;70842;50.744;7.114;2023-07-20T09:20:16;101012.53;;;20.91;49.47
81387;BME280;70842;50.744;7.114;2023-07-20T09:22:47;101004.31;;;20.93;49.22
81387;BME280;70842;50.744;7.114;2023-07-20T09:25:17;101009.34;;;20.73;49.41
81387;BME280;70842;50.744;7.114;2023-07-20T09:27:45;101006.31;;;20.91;48.96
81387;BME280;70842;50.744;7.114;2023-07-20T09:30:14;101006.69;;;20.88;49.07
81387;BME280;70842;50.744;7.114;2023-07-20T09:32:49;101002.00;;;20.67;49.74
81387;BME280;70842;50.744;7.114;2023-07-20T09:35:21;101012.97;;;20.80;49.51
81387;BME280;70842;50.744;7.114;2023-07-20T09:37:58;101016.19;;;20.61;50.53
81387;BME280;70842;50.744;7.114;2023-07-20T09:40:28;101008.97;;;20.76;50.02
81387;BME280;70842;50.744;7.114;2023-07-20T09:42:58;101012.25;;;20.72;48.34
81387;BME280;70842;50.744;7.114;2023-07-20T09:45:33;101001.19;;;20.81;47.22
81387;BME280;70842;50.744;7.114;2023-07-20T09:48:03;100999.22;;;21.13;47.26
81387;BME280;70842;50.744;7.114;2023-07-20T09:50:39;101003.38;;;21.00;47.73
81387;BME280;70842;50.744;7.114;2023-07-20T09:53:06;100999.25;;;21.27;47.61
81387;BME280;70842;50.744;7.114;2023-07-20T09:55:37;101000.94;;;21.28;47.71
81387;BME280;70842;50.744;7.114;2023-07-20T09:58:04;100998.41;;;21.12;46.80
81387;BME280;70842;50.744;7.114;2023-07-20T10:00:36;100999.16;;;21.50;46.03
81387;BME280;70842;50.744;7.114;2023-07-20T10:03:06;101000.63;;;21.82;46.40
81387;BME280;70842;50.744;7.114;2023-07-20T10:05:34;100990.59;;;21.75;44.57
81387;BME280;70842;50.744;7.114;2023-07-20T10:08:02;100986.47;;;21.80;45.22
81387;BME280;70842;50.744;7.114;2023-07-20T10:10:34;100989.84;;;21.67;45.21
81387;BME280;70842;50.744;7.114;2023-07-20T10:13:01;100999.81;;;21.52;46.36
81387;BME280;70842;50.744;7.114;2023-07-20T10:15:46;100990.03;;;21.51;45.03
81387;BME280;70842;50.744;7.114;2023-07-20T10:18:35;100983.06;;;21.71;44.69
81387;BME280;70842;50.744;7.114;2023-07-20T10:21:06;100983.06;;;21.71;44.59
81387;BME280;70842;50.744;7.114;2023-07-20T10:23:37;100982.97;;;21.64;46.89
81387;BME280;70842;50.744;7.114;2023-07-20T10:26:05;100982.88;;;21.58;47.38
81387;BME280;70842;50.744;7.114;2023-07-20T10:28:32;100987.16;;;21.38;47.23
81387;BME280;70842;50.744;7.114;2023-07-20T10:30:59;100978.41;;;21.65;46.62
81387;BME280;70842;50.744;7.114;2023-07-20T10:33:25;100988.97;;;21.81;46.50
81387;BME280;70842;50.744;7.114;2023-07-20T10:35:57;100978.00;;;21.97;46.48
81387;BME280;70842;50.744;7.114;2023-07-20T10:38:52;100971.25;;;21.57;45.58
81387;BME280;70842;50.744;7.114;2023-07-20T10:41:35;100974.22;;;21.62;44.77
81387;BME280;70842;50.744;7.114;2023-07-20T10:44:03;100976.72;;;21.64;44.68
81387;BME280;70842;50.744;7.114;2023-07-20T10:46:34;100969.84;;;21.91;43.92
81387;BME280;70842;50.744;7.114;2023-07-20T10:49:09;100960.72;;;21.77;43.37
81387;BME280;70842;50.744;7.114;2023-07-20T10:51:39;100953.28;;;22.15;42.69
81387;BME280;70842;50.744;7.114;2023-07-20T10:56:56;100953.22;;;22.29;41.95
81387;BME280;70842;50.744;7.114;2023-07-20T11:01:54;100948.44;;;23.01;41.27
81387;BME280;70842;50.744;7.114;2023-07-20T11:07:07;100938.97;;;23.53;39.46
81387;BME280;70842;50.744;7.114;2023-07-20T11:09:35;100952.09;;;22.87;40.26
81387;BME280;70842;50.744;7.114;2023-07-20T11:12:15;100958.38;;;22.45;42.09
81387;BME280;70842;50.744;7.114;2023-07-20T11:14:56;100953.63;;;22.26;43.22
81387;BME280;70842;50.744;7.114;2023-07-20T11:17:30;100947.50;;;22.18;43.06
81387;BME280;70842;50.744;7.114;2023-07-20T11:19:59;100956.16;;;21.92;42.58
81387;BME280;70842;50.744;7.114;2023-07-20T11:22:33;100954.63;;;22.04;42.95
81387;BME280;70842;50.744;7.114;2023-07-20T11:24:59;100945.63;;;22.18;42.72
81387;BME280;70842;50.744;7.114;2023-07-20T11:27:26;100956.75;;;22.09;42.01
81387;BME280;70842;50.744;7.114;2023-07-20T11:29:54;100940.44;;;22.17;41.44
81387;BME280;70842;50.744;7.114;2023-07-20T11:32:22;100946.22;;;22.14;40.57
81387;BME280;70842;50.744;7.114;2023-07-20T11:34:49;100946.28;;;22.20;41.75
81387;BME280;70842;50.744;7.114;2023-07-20T11:37:16;100940.34;;;22.31;42.20
81387;BME280;70842;50.744;7.114;2023-07-20T11:39:44;100947.81;;;22.29;41.56
81387;BME280;70842;50.744;7.114;2023-07-20T11:42:11;100945.59;;;21.97;40.65
81387;BME280;70842;50.744;7.114;2023-07-20T11:44:39;100950.00;;;21.98;40.05
81387;BME280;70842;50.744;7.114;2023-07-20T11:47:11;100951.72;;;22.06;41.35
81387;BME280;70842;50.744;7.114;2023-07-20T11:49:42;100952.31;;;22.43;40.54
81387;BME280;70842;50.744;7.114;2023-07-20T11:52:16;100941.59;;;22.78;40.44
81387;BME280;70842;50.744;7.114;2023-07-20T11:54:44;100955.31;;;22.55;41.62
81387;BME280;70842;50.744;7.114;2023-07-20T11:57:21;100941.88;;;22.83;42.00
81387;BME280;70842;50.744;7.114;2023-07-20T12:00:00;100945.22;;;23.19;41.68
81387;BME280;70842;50.744;7.114;2023-07-20T12:02:27;100950.22;;;22.88;41.33
81387;BME280;70842;50.744;7.114;2023-07-20T12:04:55;100942.06;;;22.81;41.54
81387;BME280;70842;50.744;7.114;2023-07-20T12:07:22;100942.53;;;23.19;41.93
81387;BME280;70842;50.744;7.114;2023-07-20T12:10:09;100930.75;;;23.33;40.08
81387;BME280;70842;50.744;7.114;2023-07-20T12:12:43;100930.06;;;23.59;40.07
81387;BME280;70842;50.744;7.114;2023-07-20T12:15:14;100929.94;;;23.33;39.85
81387;BME280;70842;50.744;7.114;2023-07-20T12:17:44;100930.00;;;23.11;40.29
81387;BME280;70842;50.744;7.114;2023-07-20T12:20:11;100929.25;;;22.90;40.16
81387;BME280;70842;50.744;7.114;2023-07-20T12:22:43;100922.03;;;23.03;40.08
81387;BME280;70842;50.744;7.114;2023-07-20T12:25:09;100932.47;;;22.79;40.46
81387;BME280;70842;50.744;7.114;2023-07-20T12:27:36;100936.94;;;22.65;40.85
81387;BME280;70842;50.744;7.114;2023-07-20T12:30:05;100926.28;;;22.85;40.88
81387;BME280;70842;50.744;7.114;2023-07-20T12:32:32;100921.91;;;23.18;40.18
81387;BME280;70842;50.744;7.114;2023-07-20T12:34:59;100922.84;;;23.72;39.29
81387;BME280;70842;50.744;7.114;2023-07-20T12:37:27;100917.66;;;23.90;38.14
81387;BME280;70842;50.744;7.114;2023-07-20T12:39:53;100916.56;;;23.65;38.92
81387;BME280;70842;50.744;7.114;2023-07-20T12:42:20;100907.47;;;23.92;37.95
81387;BME280;70842;50.744;7.114;2023-07-20T12:44:47;100907.97;;;24.35;37.49
81387;BME280;70842;50.744;7.114;2023-07-20T12:47:13;100903.78;;;24.26;37.20
81387;BME280;70842;50.744;7.114;2023-07-20T12:49:40;100906.34;;;24.41;36.43
81387;BME280;70842;50.744;7.114;2023-07-20T12:52:07;100913.28;;;23.83;36.84
81387;BME280;70842;50.744;7.114;2023-07-20T12:54:34;100905.44;;;24.08;38.32
81387;BME280;70842;50.744;7.114;2023-07-20T12:57:01;100910.28;;;24.32;37.06
81387;BME280;70842;50.744;7.114;2023-07-20T12:59:32;100904.88;;;24.45;35.80
81387;BME280;70842;50.744;7.114;2023-07-20T13:01:59;100900.47;;;24.63;35.19
81387;BME280;70842;50.744;7.114;2023-07-20T13:04:25;100897.78;;;24.83;34.51
81387;BME280;70842;50.744;7.114;2023-07-20T13:06:52;100900.28;;;24.78;34.63
81387;BME280;70842;50.744;7.114;2023-07-20T13:09:18;100903.75;;;25.05;34.64
81387;BME280;70842;50.744;7.114;2023-07-20T13:11:45;100888.81;;;24.89;33.57
81387;BME280;70842;50.744;7.114;2023-07-20T13:14:12;100893.94;;;25.23;34.09